Time;durP1;ratioP1;P1;durP2;ratioP2;P2;SDS_P1;SDS_P2;PMS_P1;PMS_P2;Temp;Humidity;BMP_temperature;BMP_pressure;BME280_temperature;BME280_humidity;BME280_pressure;Samples;Min_cycle;Max_cycle;Signal;HPM_P1;HPM_P2
2022/08/21 00:00:41;;;;;;;18.27;6.40;;;;;;;14.25;100.00;101551.78;5040824;28;20033;-65
2022/08/21 00:03:09;;;;;;;19.95;6.47;;;;;;;14.22;100.00;101550.00;5043870;28;20017;-65
2022/08/21 00:05:41;;;;;;;20.67;6.82;;;;;;;14.20;100.00;101546.47;5041856;28;20416;-66
2022/08/21 00:08:07;;;;;;;20.48;6.88;;;;;;;14.24;100.00;101550.00;5044197;28;20020;-66
2022/08/21 00:10:33;;;;;;;19.50;6.72;;;;;;;14.22;100.00;101541.13;5042002;28;20426;-66
2022/08/21 00:13:00;;;;;;;20.85;6.65;;;;;;;14.22;100.00;101552.66;5042804;28;20079;-65
2022/08/21 00:15:29;;;;;;;20.83;7.10;;;;;;;14.24;100.00;101548.25;5042312;28;20028;-65
2022/08/21 00:17:55;;;;;;;19.40;7.00;;;;;;;14.22;100.00;101541.13;5042367;28;20541;-65
2022/08/21 00:20:22;;;;;;;19.70;6.70;;;;;;;14.23;100.00;101542.91;5043306;28;20049;-66
2022/08/21 00:22:47;;;;;;;19.38;6.70;;;;;;;14.25;100.00;101542.00;5041275;28;20443;-66
2022/08/21 00:25:14;;;;;;;20.17;6.90;;;;;;;14.25;100.00;101542.00;5044024;28;20031;-66
2022/08/21 00:27:42;;;;;;;19.48;6.90;;;;;;;14.21;100.00;101542.94;5040713;28;20104;-66
2022/08/21 00:30:08;;;;;;;19.58;7.00;;;;;;;14.19;100.00;101542.03;5043983;28;20029;-66
2022/08/21 00:32:36;;;;;;;19.77;7.20;;;;;;;14.16;100.00;101539.38;5043337;28;20463;-66
2022/08/21 00:35:03;;;;;;;19.27;6.75;;;;;;;14.18;100.00;101539.34;5047165;28;20068;-66
2022/08/21 00:37:28;;;;;;;19.88;7.60;;;;;;;14.17;100.00;101530.50;5046407;28;20097;-65
2022/08/21 00:39:54;;;;;;;19.13;7.68;;;;;;;14.20;100.00;101527.84;5045793;28;20468;-65
2022/08/21 00:42:20;;;;;;;20.55;8.00;;;;;;;14.18;100.00;101529.59;5047445;28;20574;-66
2022/08/21 00:44:48;;;;;;;20.13;7.68;;;;;;;14.07;100.00;101528.72;5044291;28;20029;-66
2022/08/21 00:47:13;;;;;;;19.42;7.60;;;;;;;13.91;100.00;101526.03;5048173;28;20032;-65
2022/08/21 00:49:40;;;;;;;20.45;8.20;;;;;;;13.84;100.00;101534.00;5044626;28;20050;-63
2022/08/21 00:52:11;;;;;;;19.35;7.60;;;;;;;13.79;100.00;101526.03;5047031;28;20029;-64
2022/08/21 00:54:39;;;;;;;19.23;7.75;;;;;;;13.72;100.00;101524.25;5044802;28;20135;-65
2022/08/21 00:57:15;;;;;;;20.35;7.30;;;;;;;13.68;100.00;101527.78;5047057;28;20044;-65
2022/08/21 00:59:45;;;;;;;20.00;7.38;;;;;;;13.66;100.00;101533.09;5040807;28;20056;-65
2022/08/21 01:02:11;;;;;;;19.63;7.80;;;;;;;13.57;100.00;101531.31;5040111;28;20025;-66
2022/08/21 01:04:37;;;;;;;19.65;7.45;;;;;;;13.56;100.00;101531.31;5046920;28;20153;-64
2022/08/21 01:07:03;;;;;;;19.85;7.40;;;;;;;13.50;100.00;101531.25;5045350;28;20021;-65
2022/08/21 01:09:28;;;;;;;20.58;7.72;;;;;;;13.43;100.00;101525.94;5046127;28;20044;-65
2022/08/21 01:11:54;;;;;;;19.02;7.22;;;;;;;13.50;100.00;101525.94;5046057;28;20460;-66
2022/08/21 01:14:20;;;;;;;19.40;7.50;;;;;;;13.46;100.00;101530.38;5044829;28;20104;-66
2022/08/21 01:16:49;;;;;;;20.35;7.53;;;;;;;13.43;100.00;101527.72;5047578;28;20468;-66
2022/08/21 01:19:16;;;;;;;19.42;7.18;;;;;;;13.47;100.00;101528.59;5040324;28;20022;-65
2022/08/21 01:21:42;;;;;;;19.25;7.00;;;;;;;13.49;100.00;101527.72;5040252;28;20027;-65
2022/08/21 01:24:09;;;;;;;18.83;6.85;;;;;;;13.36;100.00;101520.59;5046802;28;20164;-62
2022/08/21 01:26:36;;;;;;;19.75;7.10;;;;;;;13.34;100.00;101528.56;5044457;28;20052;-65
2022/08/21 01:29:15;;;;;;;20.23;6.90;;;;;;;13.30;100.00;101521.44;5045933;28;20108;-66
2022/08/21 01:31:41;;;;;;;18.77;6.43;;;;;;;13.21;100.00;101516.97;5039765;28;20024;-66
2022/08/21 01:34:08;;;;;;;20.00;6.80;;;;;;;13.22;100.00;101524.06;5046480;28;20033;-66
2022/08/21 01:36:34;;;;;;;19.63;6.53;;;;;;;13.20;100.00;101523.16;5044497;28;20025;-64
2022/08/21 01:39:00;;;;;;;20.63;6.85;;;;;;;13.16;100.00;101523.13;5045551;28;20392;-66
2022/08/21 01:41:25;;;;;;;17.58;6.55;;;;;;;13.13;100.00;101520.47;5045738;28;20086;-66
2022/08/21 01:43:50;;;;;;;18.15;6.65;;;;;;;13.18;100.00;101521.41;5044165;28;20025;-61
2022/08/21 01:46:16;;;;;;;18.75;6.85;;;;;;;13.12;100.00;101524.91;5046832;28;20493;-64
2022/08/21 01:48:42;;;;;;;17.65;6.45;;;;;;;13.07;100.00;101526.63;5043198;28;20623;-64
2022/08/21 01:51:07;;;;;;;19.27;6.70;;;;;;;13.01;100.00;101529.25;5046440;28;20392;-63
2022/08/21 01:53:36;;;;;;;18.15;6.70;;;;;;;12.89;100.00;101530.97;5044470;28;20021;-61
2022/08/21 01:56:03;;;;;;;18.80;6.95;;;;;;;12.77;100.00;101524.69;5045156;28;20052;-62
2022/08/21 01:58:29;;;;;;;19.25;6.93;;;;;;;12.79;100.00;101523.84;5045119;28;20029;-61
2022/08/21 02:00:55;;;;;;;19.70;7.22;;;;;;;12.86;100.00;101523.00;5044669;28;20405;-65
2022/08/21 02:03:20;;;;;;;18.20;7.05;;;;;;;12.77;100.00;101516.75;5045951;28;20029;-63
2022/08/21 02:05:45;;;;;;;18.10;6.75;;;;;;;12.85;100.00;101518.56;5043395;28;20151;-64
2022/08/21 02:08:10;;;;;;;20.25;6.75;;;;;;;12.90;100.00;101506.22;5046248;28;20028;-62
2022/08/21 02:10:36;;;;;;;19.48;7.05;;;;;;;12.88;100.00;101507.09;5043494;28;20115;-64
2022/08/21 02:13:01;;;;;;;18.77;6.75;;;;;;;12.85;100.00;101505.28;5045096;28;20034;-64
2022/08/21 02:15:29;;;;;;;19.20;6.88;;;;;;;12.81;100.00;101502.63;5044807;28;20100;-65
2022/08/21 02:17:57;;;;;;;19.13;6.90;;;;;;;12.76;100.00;101494.63;5043792;28;20566;-64
2022/08/21 02:20:34;;;;;;;19.15;6.60;;;;;;;12.77;100.00;101500.81;5045270;28;20028;-64
2022/08/21 02:23:00;;;;;;;18.80;6.80;;;;;;;12.66;100.00;101495.47;5044984;28;20025;-65
2022/08/21 02:25:26;;;;;;;18.95;6.80;;;;;;;12.67;100.00;101502.56;5044501;28;20432;-64
2022/08/21 02:27:52;;;;;;;19.85;7.20;;;;;;;12.55;100.00;101503.34;5043354;28;20431;-65
2022/08/21 02:30:22;;;;;;;18.85;6.60;;;;;;;12.37;100.00;101506.75;5045614;28;20021;-61
2022/08/21 02:32:47;;;;;;;18.23;6.75;;;;;;;12.28;100.00;101504.91;5042600;28;20029;-64
2022/08/21 02:35:13;;;;;;;19.70;6.90;;;;;;;12.21;100.00;101505.75;5046413;28;20546;-68
2022/08/21 02:37:48;;;;;;;19.85;7.63;;;;;;;12.02;100.00;101497.63;5041957;28;20056;-68
2022/08/21 02:40:16;;;;;;;19.75;7.50;;;;;;;12.00;100.00;101501.16;5037500;28;20030;-68
2022/08/21 02:42:43;;;;;;;19.27;7.40;;;;;;;12.03;100.00;101499.41;5038454;28;20095;-68
2022/08/21 02:45:08;;;;;;;19.65;7.35;;;;;;;12.15;100.00;101498.63;5045536;28;20033;-68
2022/08/21 02:47:34;;;;;;;19.20;8.13;;;;;;;12.16;100.00;101489.81;5043154;28;20021;-68
2022/08/21 02:49:59;;;;;;;19.10;7.18;;;;;;;12.13;100.00;101495.09;5043748;28;20049;-68
2022/08/21 02:52:24;;;;;;;21.10;8.50;;;;;;;12.24;100.00;101495.16;5044592;28;20083;-68
2022/08/21 02:54:50;;;;;;;18.60;7.03;;;;;;;12.21;100.00;101498.66;5041778;28;20095;-68
2022/08/21 02:57:15;;;;;;;22.30;9.00;;;;;;;12.29;100.00;101501.41;5045671;28;20459;-68
2022/08/21 02:59:40;;;;;;;20.08;8.25;;;;;;;12.36;100.00;101491.72;5042246;28;20465;-68
2022/08/21 03:02:06;;;;;;;21.05;9.50;;;;;;;12.40;100.00;101501.47;5044688;28;20068;-68
2022/08/21 03:04:31;;;;;;;21.00;9.73;;;;;;;12.42;100.00;101496.19;5043287;28;20376;-68
2022/08/21 03:06:57;;;;;;;21.13;10.38;;;;;;;12.46;100.00;101496.19;5043595;28;20033;-68
2022/08/21 03:09:23;;;;;;;19.75;8.05;;;;;;;12.34;100.00;101493.47;5044241;28;20461;-68
2022/08/21 03:11:51;;;;;;;22.15;10.75;;;;;;;12.36;100.00;101491.72;5042213;28;20033;-67
2022/08/21 03:14:17;;;;;;;24.73;12.38;;;;;;;12.37;100.00;101490.84;5045275;28;20037;-67
2022/08/21 03:16:42;;;;;;;22.90;12.95;;;;;;;12.29;100.00;101485.50;5037693;28;20033;-67
2022/08/21 03:19:07;;;;;;;24.27;14.73;;;;;;;12.29;100.00;101487.25;5044775;28;20083;-67
2022/08/21 03:21:33;;;;;;;25.27;14.48;;;;;;;12.28;100.00;101489.00;5042635;28;20025;-68
2022/08/21 03:23:58;;;;;;;24.20;13.88;;;;;;;12.33;100.00;101489.03;5043050;28;20097;-69
2022/08/21 03:26:24;;;;;;;25.92;15.18;;;;;;;12.28;100.00;101488.13;5043986;28;20035;-61
2022/08/21 03:28:50;;;;;;;24.48;14.57;;;;;;;12.24;100.00;101491.63;5042342;28;20029;-62
2022/08/21 03:31:16;;;;;;;25.98;15.05;;;;;;;12.26;100.00;101484.56;5044924;28;20383;-61
2022/08/21 03:33:42;;;;;;;24.80;14.80;;;;;;;12.20;100.00;101491.63;5037541;28;20021;-60
2022/08/21 03:36:08;;;;;;;25.50;15.07;;;;;;;12.25;100.00;101489.00;5044217;28;20469;-61
2022/08/21 03:38:36;;;;;;;25.67;15.15;;;;;;;12.25;100.00;101490.78;5041081;28;20063;-61
2022/08/21 03:41:03;;;;;;;24.13;15.02;;;;;;;12.16;100.00;101479.22;5043353;28;20109;-61
2022/08/21 03:43:29;;;;;;;27.30;15.70;;;;;;;12.13;100.00;101484.50;5042864;28;20021;-60
2022/08/21 03:45:55;;;;;;;25.23;15.23;;;;;;;12.17;100.00;101481.00;5042068;28;20032;-61
2022/08/21 03:48:20;;;;;;;26.02;15.63;;;;;;;12.09;100.00;101482.69;5044139;28;20052;-62
2022/08/21 03:50:47;;;;;;;25.33;15.45;;;;;;;12.10;100.00;101476.53;5041389;28;20029;-61
2022/08/21 03:53:13;;;;;;;27.00;15.50;;;;;;;12.08;100.00;101472.06;5036982;28;20032;-61
2022/08/21 03:55:39;;;;;;;24.95;14.63;;;;;;;12.11;100.00;101480.91;5044227;28;20047;-61
2022/08/21 03:58:06;;;;;;;25.85;14.68;;;;;;;12.05;100.00;101472.94;5041779;28;20385;-61
2022/08/21 04:00:31;;;;;;;25.83;15.15;;;;;;;11.98;100.00;101473.75;5043260;28;20033;-65
2022/08/21 04:02:57;;;;;;;24.80;14.85;;;;;;;12.04;100.00;101476.44;5043485;28;20028;-66
2022/08/21 04:05:29;;;;;;;25.08;14.82;;;;;;;12.06;100.00;101476.47;5041762;28;20461;-63
2022/08/21 04:08:01;;;;;;;24.17;13.63;;;;;;;12.01;100.00;101481.72;5043281;28;20468;-61
2022/08/21 04:10:29;;;;;;;24.08;14.27;;;;;;;11.99;100.00;101480.84;5042305;28;20026;-66
2022/08/21 04:12:55;;;;;;;26.35;15.02;;;;;;;11.94;100.00;101479.91;5043595;28;20100;-66
2022/08/21 04:15:22;;;;;;;25.15;14.65;;;;;;;11.86;100.00;101480.69;5041037;28;20029;-66
2022/08/21 04:17:48;;;;;;;26.80;15.13;;;;;;;11.83;100.00;101488.59;5041015;28;20431;-65
2022/08/21 04:20:14;;;;;;;24.98;14.80;;;;;;;11.86;100.00;101487.75;5044432;28;20031;-66
2022/08/21 04:22:40;;;;;;;26.55;15.02;;;;;;;11.82;100.00;101489.50;5040022;28;20516;-64
2022/08/21 04:25:07;;;;;;;25.45;15.10;;;;;;;11.80;100.00;101490.34;5043689;28;20060;-65
2022/08/21 04:27:32;;;;;;;26.33;14.73;;;;;;;11.84;100.00;101497.44;5043931;28;20030;-65
2022/08/21 04:29:58;;;;;;;26.48;14.43;;;;;;;11.77;100.00;101488.56;5042680;28;20021;-65
2022/08/21 04:32:24;;;;;;;24.38;14.30;;;;;;;11.77;100.00;101496.50;5041661;28;20029;-64
2022/08/21 04:34:49;;;;;;;25.10;14.85;;;;;;;11.78;100.00;101492.06;5043796;28;20447;-65
2022/08/21 04:37:15;;;;;;;25.45;14.40;;;;;;;11.79;100.00;101491.22;5040940;28;20049;-64
2022/08/21 04:39:41;;;;;;;25.08;14.23;;;;;;;11.70;100.00;101505.25;5043843;28;20021;-65
2022/08/21 04:42:07;;;;;;;24.40;14.45;;;;;;;11.68;100.00;101505.25;5041232;28;20079;-64
2022/08/21 04:44:32;;;;;;;25.17;15.18;;;;;;;11.63;100.00;101500.75;5042661;28;20046;-66
2022/08/21 04:46:58;;;;;;;27.73;14.70;;;;;;;11.64;100.00;101497.25;5042612;28;20025;-65
2022/08/21 04:49:23;;;;;;;27.02;14.10;;;;;;;11.68;100.00;101507.00;5041609;28;20061;-64
2022/08/21 04:51:49;;;;;;;25.23;13.98;;;;;;;11.68;100.00;101504.34;5043738;28;20388;-65
2022/08/21 04:54:20;;;;;;;25.15;13.98;;;;;;;11.71;100.00;101507.03;5040646;28;20026;-67
2022/08/21 04:56:51;;;;;;;25.73;14.15;;;;;;;11.75;100.00;101492.97;5035433;28;20499;-68
2022/08/21 04:59:27;;;;;;;24.88;14.02;;;;;;;11.76;100.00;101501.78;5036934;28;20067;-68
2022/08/21 05:01:57;;;;;;;26.52;13.73;;;;;;;11.79;100.00;101500.03;5038545;28;20025;-66
2022/08/21 05:04:26;;;;;;;26.50;14.13;;;;;;;11.79;100.00;101505.34;5043552;28;20060;-68
2022/08/21 05:06:54;;;;;;;26.35;14.05;;;;;;;11.80;100.00;101507.13;5040929;28;20029;-68
2022/08/21 05:09:21;;;;;;;27.20;13.82;;;;;;;11.82;100.00;101510.69;5043474;28;20021;-68
2022/08/21 05:11:48;;;;;;;23.98;12.82;;;;;;;11.86;100.00;101501.88;5040773;28;20115;-68
2022/08/21 05:14:14;;;;;;;25.17;13.57;;;;;;;11.89;100.00;101510.75;5036570;28;20025;-69
2022/08/21 05:16:41;;;;;;;25.17;13.57;;;;;;;11.93;100.00;101513.47;5043460;28;20108;-68
2022/08/21 05:19:07;;;;;;;24.80;13.52;;;;;;;11.96;100.00;101510.84;5043987;28;20025;-68
2022/08/21 05:21:38;;;;;;;24.17;12.95;;;;;;;12.03;100.00;101514.44;5045815;28;20021;-68
2022/08/21 05:24:04;;;;;;;23.92;12.55;;;;;;;12.07;100.00;101524.16;5045056;28;20029;-68
2022/08/21 05:26:29;;;;;;;25.05;13.00;;;;;;;12.08;100.00;101520.66;5045603;28;20022;-67
2022/08/21 05:28:55;;;;;;;24.50;12.43;;;;;;;12.10;100.00;101521.56;5046220;28;20465;-66
2022/08/21 05:31:20;;;;;;;23.88;12.30;;;;;;;12.14;100.00;101523.34;5044159;28;20117;-66
2022/08/21 05:33:46;;;;;;;25.35;13.23;;;;;;;12.18;100.00;101526.94;5047205;28;20030;-68
2022/08/21 05:36:11;;;;;;;25.23;12.43;;;;;;;12.21;100.00;101525.19;5043978;28;20026;-68
2022/08/21 05:38:36;;;;;;;25.00;11.95;;;;;;;12.28;100.00;101526.13;5045915;28;20045;-69
2022/08/21 05:41:02;;;;;;;24.45;11.32;;;;;;;12.34;100.00;101533.25;5045359;28;20025;-67
2022/08/21 05:43:27;;;;;;;24.52;11.88;;;;;;;12.39;100.00;101531.50;5044702;28;20099;-67
2022/08/21 05:45:52;;;;;;;26.33;11.95;;;;;;;12.43;100.00;101529.78;5046557;28;20029;-66
2022/08/21 05:48:21;;;;;;;24.48;11.38;;;;;;;12.49;100.00;101529.81;5043374;28;20050;-67
2022/08/21 05:50:48;;;;;;;25.13;11.90;;;;;;;12.55;100.00;101540.47;5039684;28;20036;-66
2022/08/21 05:53:15;;;;;;;24.63;11.38;;;;;;;12.60;100.00;101535.22;5039584;28;20394;-67
2022/08/21 05:55:41;;;;;;;23.60;10.75;;;;;;;12.64;100.00;101529.03;5046278;28;20071;-66
2022/08/21 05:58:07;;;;;;;23.70;11.10;;;;;;;12.70;100.00;101539.72;5044135;28;20028;-67
2022/08/21 06:00:33;;;;;;;23.77;10.80;;;;;;;12.73;100.00;101530.00;5045391;28;20029;-64
2022/08/21 06:02:58;;;;;;;23.50;10.82;;;;;;;12.81;100.00;101531.81;5045201;28;20021;-64
2022/08/21 06:05:24;;;;;;;23.17;10.13;;;;;;;12.86;100.00;101538.91;5043768;28;20040;-64
2022/08/21 06:07:49;;;;;;;23.02;10.35;;;;;;;12.94;100.00;101535.41;5036904;28;20033;-60
2022/08/21 06:10:15;;;;;;;24.13;10.43;;;;;;;12.99;100.00;101534.56;5032068;28;20026;-60
2022/08/21 06:12:40;;;;;;;23.52;10.25;;;;;;;13.03;100.00;101531.06;5037973;28;20022;-75
2022/08/21 06:15:06;;;;;;;22.63;10.45;;;;;;;13.10;100.00;101534.59;5034494;28;20392;-72
2022/08/21 06:17:31;;;;;;;24.98;9.90;;;;;;;13.15;100.00;101532.88;5033978;28;20033;-73
2022/08/21 06:19:56;;;;;;;23.00;9.82;;;;;;;13.22;100.00;101539.09;5033511;28;20426;-71
2022/08/21 06:22:22;;;;;;;23.10;10.32;;;;;;;13.28;100.00;101538.22;5034519;28;20078;-70
2022/08/21 06:24:48;;;;;;;25.17;9.93;;;;;;;13.33;100.00;101537.38;5033363;28;20076;-74
2022/08/21 06:27:14;;;;;;;22.75;10.25;;;;;;;13.38;100.00;101534.75;5037110;28;20068;-73
2022/08/21 06:29:40;;;;;;;23.33;10.18;;;;;;;13.45;100.00;101533.91;5032909;28;20029;-71
2022/08/21 06:32:08;;;;;;;24.25;10.27;;;;;;;13.51;100.00;101536.56;5035769;28;20033;-69
2022/08/21 06:34:39;;;;;;;24.25;10.20;;;;;;;13.61;100.00;101537.50;5032979;28;20030;-70
2022/08/21 06:37:04;;;;;;;24.67;10.43;;;;;;;13.69;100.00;101541.06;5033981;28;20021;-67
2022/08/21 06:39:30;;;;;;;23.73;9.90;;;;;;;13.78;100.00;101532.22;5033836;28;20025;-75
2022/08/21 06:41:55;;;;;;;22.50;10.05;;;;;;;13.86;100.00;101537.53;5031780;28;20491;-71
2022/08/21 06:44:21;;;;;;;22.98;9.65;;;;;;;13.94;100.00;101535.81;5033427;28;20026;-75
2022/08/21 06:46:47;;;;;;;25.58;9.68;;;;;;;14.03;100.00;101538.47;5038823;28;20101;-70
2022/08/21 06:49:12;;;;;;;23.40;9.80;;;;;;;14.17;100.00;101537.56;5033073;28;20040;-76
2022/08/21 06:51:38;;;;;;;22.77;9.13;;;;;;;14.24;100.00;101528.72;5036285;28;20046;-74
2022/08/21 06:54:04;;;;;;;22.85;9.32;;;;;;;14.34;100.00;101537.59;5033261;28;20032;-77
2022/08/21 06:56:29;;;;;;;23.08;9.88;;;;;;;14.44;100.00;101542.00;5034340;28;20119;-70
2022/08/21 06:58:54;;;;;;;22.92;9.30;;;;;;;14.56;100.00;101547.34;5032999;28;20384;-79
2022/08/21 07:01:23;;;;;;;23.45;9.52;;;;;;;14.66;100.00;101532.25;5035143;28;20056;-69
2022/08/21 07:03:49;;;;;;;23.42;9.45;;;;;;;14.79;100.00;101535.78;5032873;28;20472;-74
2022/08/21 07:06:15;;;;;;;24.10;9.45;;;;;;;14.87;100.00;101536.66;5037019;28;20032;-71
2022/08/21 07:08:40;;;;;;;23.70;9.32;;;;;;;15.00;100.00;101532.22;5032703;28;20463;-72
2022/08/21 07:11:10;;;;;;;23.95;9.27;;;;;;;15.12;100.00;101536.59;5036370;28;20104;-73
2022/08/21 07:13:36;;;;;;;23.65;9.30;;;;;;;15.22;100.00;101533.00;5032499;28;20028;-72
2022/08/21 07:16:01;;;;;;;23.50;9.27;;;;;;;15.36;100.00;101534.72;5033647;28;20025;-74
2022/08/21 07:18:27;;;;;;;23.25;9.18;;;;;;;15.53;100.00;101532.84;5035880;28;20049;-68
2022/08/21 07:20:52;;;;;;;25.08;9.07;;;;;;;15.74;100.00;101537.19;5032814;28;20032;-68
2022/08/21 07:23:26;;;;;;;24.88;8.82;;;;;;;15.84;100.00;101532.72;5035359;28;20022;-68
2022/08/21 07:25:51;;;;;;;24.83;9.60;;;;;;;15.96;100.00;101523.72;5034973;28;20025;-71
2022/08/21 07:28:16;;;;;;;23.58;8.63;;;;;;;16.01;100.00;101529.94;5039313;28;20391;-79
2022/08/21 07:30:42;;;;;;;25.50;9.30;;;;;;;16.06;100.00;101533.44;5032451;28;20087;-73
2022/08/21 07:33:07;;;;;;;24.27;8.75;;;;;;;16.09;100.00;101529.88;5034526;28;20472;-76
2022/08/21 07:35:33;;;;;;;22.98;8.52;;;;;;;16.09;100.00;101529.88;5033196;28;20024;-76
2022/08/21 07:37:59;;;;;;;24.48;8.43;;;;;;;16.03;100.00;101533.47;5036631;28;20358;-75
2022/08/21 07:40:25;;;;;;;22.05;8.15;;;;;;;16.05;100.00;101534.34;5032031;28;20453;-60
2022/08/21 07:42:51;;;;;;;24.73;8.25;;;;;;;16.17;100.00;101536.91;5033187;28;20076;-61
2022/08/21 07:45:19;;;;;;;21.38;7.70;;;;;;;16.31;100.00;101535.91;5030568;28;20075;-61
2022/08/21 07:47:44;;;;;;;24.08;7.55;;;;;;;16.50;100.00;101534.00;5037000;28;20541;-61
2022/08/21 07:50:12;;;;;;;22.80;7.63;;;;;;;16.62;100.00;101539.19;5032309;28;20104;-63
2022/08/21 07:52:38;;;;;;;23.42;7.45;;;;;;;16.71;100.00;101546.22;5031579;28;20045;-61
2022/08/21 07:55:04;;;;;;;21.83;7.00;;;;;;;16.73;100.00;101534.63;5038887;28;20030;-65
2022/08/21 07:57:29;;;;;;;22.98;6.50;;;;;;;16.72;100.00;101538.19;5032177;28;20038;-64
2022/08/21 07:59:55;;;;;;;22.63;6.75;;;;;;;16.84;100.00;101541.66;5036404;28;20025;-65
2022/08/21 08:02:29;;;;;;;21.88;6.43;;;;;;;16.93;100.00;101546.91;5035865;28;20500;-64
2022/08/21 08:04:58;;;;;;;22.27;6.28;;;;;;;17.07;100.00;101528.94;5039442;28;20119;-65
2022/08/21 08:07:24;;;;;;;23.15;6.88;;;;;;;17.22;100.00;101529.66;5041511;28;20488;-65
2022/08/21 08:09:49;;;;;;;22.17;6.07;;;;;;;17.44;100.00;101527.59;5042683;28;20056;-67
2022/08/21 08:12:14;;;;;;;21.67;6.07;;;;;;;17.88;100.00;101525.19;5042913;28;20088;-69
2022/08/21 08:14:40;;;;;;;20.38;5.78;;;;;;;18.34;100.00;101528.97;5041790;28;20167;-69
2022/08/21 08:17:05;;;;;;;21.63;5.85;;;;;;;18.67;100.00;101527.47;5044557;28;20029;-69
2022/08/21 08:19:31;;;;;;;22.95;5.60;;;;;;;18.95;100.00;101532.34;5040637;28;20027;-69
2022/08/21 08:21:56;;;;;;;19.90;5.00;;;;;;;19.27;100.00;101533.47;5044010;28;20106;-69
2022/08/21 08:24:22;;;;;;;20.00;5.00;;;;;;;19.42;100.00;101537.63;5042090;28;20053;-69
2022/08/21 08:26:47;;;;;;;20.95;5.38;;;;;;;19.65;100.00;101529.06;5042151;28;20409;-70
2022/08/21 08:29:12;;;;;;;22.95;5.35;;;;;;;19.96;100.00;101528.38;5043184;28;20021;-69
2022/08/21 08:31:38;;;;;;;21.73;5.22;;;;;;;19.98;100.00;101531.91;5041406;28;20021;-69
2022/08/21 08:34:03;;;;;;;19.60;5.25;;;;;;;20.10;100.00;101531.63;5044115;28;20028;-65
2022/08/21 08:36:34;;;;;;;20.45;4.57;;;;;;;20.44;100.00;101533.44;5040953;28;20048;-65
2022/08/21 08:39:00;;;;;;;19.88;4.30;;;;;;;20.80;100.00;101533.41;5044149;28;20040;-65
2022/08/21 08:41:26;;;;;;;18.88;4.60;;;;;;;21.21;100.00;101527.78;5040069;28;20033;-65
2022/08/21 08:43:55;;;;;;;18.08;4.32;;;;;;;20.94;100.00;101527.69;5042894;28;20021;-65
2022/08/21 08:46:33;;;;;;;19.42;4.55;;;;;;;20.70;100.00;101531.91;5042093;28;20021;-64
2022/08/21 08:49:26;;;;;;;21.15;5.05;;;;;;;21.12;100.00;101520.88;5043909;28;20049;-65
2022/08/21 08:51:56;;;;;;;20.85;4.70;;;;;;;21.38;100.00;101516.53;5019586;28;20038;-66
2022/08/21 08:54:33;;;;;;;19.23;4.60;;;;;;;20.79;100.00;101517.34;5022657;28;20103;-65
2022/08/21 08:57:01;;;;;;;20.35;5.10;;;;;;;20.82;100.00;101517.25;5025289;28;20033;-65
2022/08/21 08:59:37;;;;;;;17.67;4.35;;;;;;;21.58;100.00;101505.19;5022745;28;20385;-64
2022/08/21 09:02:04;;;;;;;19.25;4.72;;;;;;;22.24;100.00;101500.34;5025848;28;20025;-69
2022/08/21 09:04:29;;;;;;;18.58;4.80;;;;;;;22.59;100.00;101498.28;5022403;28;20033;-70
2022/08/21 09:07:28;;;;;;;16.27;4.00;;;;;;;22.92;100.00;101497.09;5024788;28;20096;-70
2022/08/21 09:10:02;;;;;;;16.67;3.70;;;;;;;22.66;100.00;101498.03;5023696;28;20420;-69
2022/08/21 09:12:45;;;;;;;19.58;4.10;;;;;;;21.77;100.00;101489.38;5022286;28;20038;-70
2022/08/21 09:15:42;;;;;;;17.42;3.58;;;;;;;21.55;100.00;101487.34;5019972;28;20038;-69
2022/08/21 09:18:27;;;;;;;17.83;3.45;;;;;;;21.03;100.00;101491.59;5022414;28;20062;-70
2022/08/21 09:21:28;;;;;;;18.25;3.60;;;;;;;20.88;100.00;101499.16;5006287;28;20147;-65
2022/08/21 09:24:02;;;;;;;18.27;3.55;;;;;;;20.90;100.00;101496.44;5023492;28;20048;-70
2022/08/21 09:26:44;;;;;;;17.35;3.63;;;;;;;21.21;100.00;101496.41;5022147;28;20533;-69
2022/08/21 09:29:12;;;;;;;18.73;3.75;;;;;;;21.99;100.00;101489.53;5029659;28;20061;-70
2022/08/21 09:31:37;;;;;;;16.65;3.90;;;;;;;22.86;99.41;101490.09;5046794;28;20021;-69
2022/08/21 09:34:11;;;;;;;18.15;3.50;;;;;;;23.54;94.51;101494.78;5042911;28;20523;-70
2022/08/21 09:36:44;;;;;;;17.42;3.75;;;;;;;23.82;91.76;101490.03;5046853;28;20450;-70
2022/08/21 09:39:12;;;;;;;16.67;3.47;;;;;;;24.33;86.33;101503.22;5037844;28;20374;-65
2022/08/21 09:41:39;;;;;;;14.63;3.50;;;;;;;24.71;80.61;101495.28;5046221;28;20484;-66
2022/08/21 09:44:07;;;;;;;16.27;3.70;;;;;;;24.63;81.36;101497.50;5043713;28;20079;-66
2022/08/21 09:46:33;;;;;;;15.35;3.80;;;;;;;24.97;81.43;101515.75;5045726;28;20056;-66
2022/08/21 09:49:01;;;;;;;16.40;3.85;;;;;;;24.65;79.06;101500.97;5044733;28;20080;-65
2022/08/21 09:51:29;;;;;;;15.18;3.78;;;;;;;24.04;81.45;101504.47;5045479;28;20029;-66
2022/08/21 09:54:07;;;;;;;17.33;4.00;;;;;;;23.44;86.18;101495.13;5037263;28;20055;-69
2022/08/21 09:59:43;;;;;;;14.93;3.63;;;;;;;24.15;81.03;101496.81;5035931;28;20071;-65
2022/08/21 10:02:35;;;;;;;16.95;3.85;;;;;;;25.64;81.89;101493.75;5036744;28;20017;-68
2022/08/21 10:05:22;;;;;;;17.43;3.97;;;;;;;26.55;67.31;101489.19;5037629;28;20048;-68
2022/08/21 10:07:49;;;;;;;16.13;3.67;;;;;;;27.42;66.12;101490.81;5038942;28;20041;-68
2022/08/21 10:10:17;;;;;;;16.83;4.05;;;;;;;26.23;60.99;101489.03;5045002;28;20380;-69
2022/08/21 10:13:13;;;;;;;14.25;3.50;;;;;;;26.42;61.88;101486.25;5043479;28;20065;-68
2022/08/21 10:15:49;;;;;;;15.48;3.53;;;;;;;25.69;62.87;101486.28;5042715;28;20037;-68
2022/08/21 10:18:47;;;;;;;17.67;3.72;;;;;;;26.82;61.93;101491.41;5042989;28;20034;-68
2022/08/21 10:21:21;;;;;;;15.75;3.67;;;;;;;28.47;45.92;101498.31;5023334;28;20038;-68
2022/08/21 10:23:52;;;;;;;15.75;3.70;;;;;;;27.78;46.74;101487.84;5016846;28;20120;-68
2022/08/21 10:26:35;;;;;;;16.15;3.65;;;;;;;25.91;51.74;101483.38;5020947;28;20136;-67
2022/08/21 10:29:06;;;;;;;12.88;3.55;;;;;;;26.13;52.90;101487.75;5022371;28;20408;-68
2022/08/21 10:31:38;;;;;;;12.70;3.60;;;;;;;26.39;50.59;101489.13;5022345;28;20401;-66
2022/08/21 10:34:24;;;;;;;14.88;3.83;;;;;;;27.26;49.09;101493.50;5022403;28;20037;-67
2022/08/21 10:37:02;;;;;;;15.07;4.30;;;;;;;26.97;46.63;101485.16;5020499;28;20378;-66
2022/08/21 10:39:40;;;;;;;16.02;4.20;;;;;;;26.38;49.92;101477.38;5004879;28;20121;-67
2022/08/21 10:42:20;;;;;;;15.85;4.10;;;;;;;26.38;49.20;101482.78;5021760;28;20025;-66
2022/08/21 10:45:15;;;;;;;15.35;3.78;;;;;;;26.77;48.17;101487.09;5020231;28;20042;-66
2022/08/21 10:47:41;;;;;;;15.90;3.95;;;;;;;26.58;48.02;101489.88;5022959;28;20052;-67
2022/08/21 10:50:07;;;;;;;13.70;3.92;;;;;;;25.65;50.00;101482.84;5021458;28;20053;-66
2022/08/21 10:52:51;;;;;;;15.45;3.80;;;;;;;25.03;54.34;101487.53;5021763;28;20092;-66
2022/08/21 10:55:21;;;;;;;14.77;4.40;;;;;;;25.58;51.79;101476.81;5016136;28;20034;-65
2022/08/21 10:57:54;;;;;;;17.92;4.45;;;;;;;25.53;51.00;101472.63;5024416;28;20033;-66
2022/08/21 11:00:23;;;;;;;17.15;5.10;;;;;;;25.86;51.18;101471.88;5038584;28;20028;-66
2022/08/21 11:02:58;;;;;;;16.25;4.53;;;;;;;25.74;52.09;101476.94;5038824;28;20409;-66
2022/08/21 11:05:35;;;;;;;19.55;5.00;;;;;;;24.99;52.53;101481.41;5039023;28;20030;-66
2022/08/21 11:08:10;;;;;;;18.80;5.25;;;;;;;25.05;51.78;101481.13;5043838;28;20074;-67
2022/08/21 11:11:00;;;;;;;15.90;4.28;;;;;;;25.24;50.16;101474.88;5043732;28;20030;-66
2022/08/21 11:13:28;;;;;;;16.35;4.72;;;;;;;25.04;50.97;101484.78;5039883;28;20060;-67
2022/08/21 11:16:26;;;;;;;16.63;4.45;;;;;;;25.99;48.79;101481.16;5044071;28;20037;-66